sensor_id;sensor_type;location;lat;lon;timestamp;P1;durP1;ratioP1;P2;durP2;ratioP2
70505;SDS011;58032;49.820;6.274;2022-09-30T00:01:22;3.72;;;1.60;;
70505;SDS011;58032;49.820;6.274;2022-09-30T00:03:51;4.50;;;1.83;;
70505;SDS011;58032;49.820;6.274;2022-09-30T00:06:18;6.40;;;1.85;;
70505;SDS011;58032;49.820;6.274;2022-09-30T00:08:46;6.00;;;1.80;;
70505;SDS011;58032;49.820;6.274;2022-09-30T00:11:14;4.95;;;1.88;;
70505;SDS011;58032;49.820;6.274;2022-09-30T00:13:45;3.40;;;1.58;;
70505;SDS011;58032;49.820;6.274;2022-09-30T00:16:13;5.30;;;1.50;;
70505;SDS011;58032;49.820;6.274;2022-09-30T00:18:40;4.72;;;1.70;;
70505;SDS011;58032;49.820;6.274;2022-09-30T00:21:08;6.38;;;2.15;;
70505;SDS011;58032;49.820;6.274;2022-09-30T00:23:35;4.82;;;2.35;;
70505;SDS011;58032;49.820;6.274;2022-09-30T00:26:09;4.43;;;2.08;;
70505;SDS011;58032;49.820;6.274;2022-09-30T00:28:38;4.83;;;1.37;;
70505;SDS011;58032;49.820;6.274;2022-09-30T00:31:06;4.93;;;1.70;;
70505;SDS011;58032;49.820;6.274;2022-09-30T00:33:33;4.00;;;1.60;;
70505;SDS011;58032;49.820;6.274;2022-09-30T00:36:00;3.65;;;1.42;;
70505;SDS011;58032;49.820;6.274;2022-09-30T00:38:28;3.95;;;1.50;;
70505;SDS011;58032;49.820;6.274;2022-09-30T00:40:55;3.97;;;1.50;;
70505;SDS011;58032;49.820;6.274;2022-09-30T00:46:32;4.82;;;1.35;;
70505;SDS011;58032;49.820;6.274;2022-09-30T00:48:54;3.28;;;1.48;;
70505;SDS011;58032;49.820;6.274;2022-09-30T00:51:28;4.78;;;1.85;;
70505;SDS011;58032;49.820;6.274;2022-09-30T00:53:57;4.43;;;1.53;;
70505;SDS011;58032;49.820;6.274;2022-09-30T00:56:25;3.72;;;1.50;;
70505;SDS011;58032;49.820;6.274;2022-09-30T01:01:20;6.03;;;2.05;;
70505;SDS011;58032;49.820;6.274;2022-09-30T01:04:31;6.75;;;2.20;;
70505;SDS011;58032;49.820;6.274;2022-09-30T01:06:39;10.57;;;2.40;;
70505;SDS011;58032;49.820;6.274;2022-09-30T01:09:06;8.82;;;2.15;;
70505;SDS011;58032;49.820;6.274;2022-09-30T01:11:33;12.45;;;2.53;;
70505;SDS011;58032;49.820;6.274;2022-09-30T01:14:11;5.53;;;2.28;;
70505;SDS011;58032;49.820;6.274;2022-09-30T01:21:47;5.50;;;1.50;;
70505;SDS011;58032;49.820;6.274;2022-09-30T01:24:44;7.95;;;1.70;;
70505;SDS011;58032;49.820;6.274;2022-09-30T01:27:23;19.42;;;2.00;;
70505;SDS011;58032;49.820;6.274;2022-09-30T01:30:18;4.05;;;1.30;;
70505;SDS011;58032;49.820;6.274;2022-09-30T01:43:22;3.53;;;1.48;;
70505;SDS011;58032;49.820;6.274;2022-09-30T01:45:55;3.40;;;1.40;;
70505;SDS011;58032;49.820;6.274;2022-09-30T01:53:34;2.88;;;1.30;;
70505;SDS011;58032;49.820;6.274;2022-09-30T01:56:05;3.70;;;1.63;;
70505;SDS011;58032;49.820;6.274;2022-09-30T02:01:27;5.32;;;1.30;;
70505;SDS011;58032;49.820;6.274;2022-09-30T02:03:57;4.97;;;1.83;;
70505;SDS011;58032;49.820;6.274;2022-09-30T02:06:29;20.48;;;2.03;;
70505;SDS011;58032;49.820;6.274;2022-09-30T02:08:58;23.25;;;2.17;;
70505;SDS011;58032;49.820;6.274;2022-09-30T02:11:27;24.83;;;1.83;;
70505;SDS011;58032;49.820;6.274;2022-09-30T02:16:23;5.68;;;1.60;;
70505;SDS011;58032;49.820;6.274;2022-09-30T02:18:56;18.67;;;1.50;;
70505;SDS011;58032;49.820;6.274;2022-09-30T02:21:25;48.95;;;2.20;;
70505;SDS011;58032;49.820;6.274;2022-09-30T02:23:54;11.07;;;1.33;;
70505;SDS011;58032;49.820;6.274;2022-09-30T02:26:23;34.80;;;2.03;;
70505;SDS011;58032;49.820;6.274;2022-09-30T02:29:01;28.20;;;1.52;;
70505;SDS011;58032;49.820;6.274;2022-09-30T02:31:31;10.52;;;1.30;;
70505;SDS011;58032;49.820;6.274;2022-09-30T02:34:02;9.55;;;1.13;;
70505;SDS011;58032;49.820;6.274;2022-09-30T02:36:38;4.80;;;0.97;;
70505;SDS011;58032;49.820;6.274;2022-09-30T02:39:09;2.70;;;0.85;;
70505;SDS011;58032;49.820;6.274;2022-09-30T02:41:43;5.43;;;0.80;;
70505;SDS011;58032;49.820;6.274;2022-09-30T02:44:11;2.78;;;0.50;;
70505;SDS011;58032;49.820;6.274;2022-09-30T02:46:50;2.85;;;0.90;;
70505;SDS011;58032;49.820;6.274;2022-09-30T02:49:21;2.13;;;0.57;;
70505;SDS011;58032;49.820;6.274;2022-09-30T02:57:37;2.80;;;0.70;;
70505;SDS011;58032;49.820;6.274;2022-09-30T03:00:07;3.15;;;0.70;;
70505;SDS011;58032;49.820;6.274;2022-09-30T03:02:38;5.27;;;0.87;;
70505;SDS011;58032;49.820;6.274;2022-09-30T03:05:05;2.70;;;0.60;;
70505;SDS011;58032;49.820;6.274;2022-09-30T03:07:32;4.22;;;0.88;;
70505;SDS011;58032;49.820;6.274;2022-09-30T03:10:00;2.90;;;0.80;;
70505;SDS011;58032;49.820;6.274;2022-09-30T03:18:05;3.28;;;1.08;;
70505;SDS011;58032;49.820;6.274;2022-09-30T03:20:55;5.22;;;1.15;;
70505;SDS011;58032;49.820;6.274;2022-09-30T03:23:44;2.35;;;0.70;;
70505;SDS011;58032;49.820;6.274;2022-09-30T03:29:12;2.40;;;0.50;;
70505;SDS011;58032;49.820;6.274;2022-09-30T03:34:16;2.50;;;0.98;;
70505;SDS011;58032;49.820;6.274;2022-09-30T03:37:01;2.83;;;0.88;;
70505;SDS011;58032;49.820;6.274;2022-09-30T03:39:41;4.97;;;1.10;;
70505;SDS011;58032;49.820;6.274;2022-09-30T03:45:11;4.35;;;1.00;;
70505;SDS011;58032;49.820;6.274;2022-09-30T03:47:45;3.55;;;1.13;;
70505;SDS011;58032;49.820;6.274;2022-09-30T03:50:14;3.33;;;1.05;;
70505;SDS011;58032;49.820;6.274;2022-09-30T03:52:42;2.92;;;0.88;;
70505;SDS011;58032;49.820;6.274;2022-09-30T03:55:09;3.40;;;0.90;;
70505;SDS011;58032;49.820;6.274;2022-09-30T03:57:37;9.18;;;1.73;;
70505;SDS011;58032;49.820;6.274;2022-09-30T04:00:04;3.85;;;1.13;;
70505;SDS011;58032;49.820;6.274;2022-09-30T04:02:31;2.97;;;1.02;;
70505;SDS011;58032;49.820;6.274;2022-09-30T04:04:58;3.15;;;1.05;;
70505;SDS011;58032;49.820;6.274;2022-09-30T04:07:25;3.00;;;0.97;;
70505;SDS011;58032;49.820;6.274;2022-09-30T04:09:52;2.85;;;0.93;;
70505;SDS011;58032;49.820;6.274;2022-09-30T04:12:18;2.47;;;0.77;;
70505;SDS011;58032;49.820;6.274;2022-09-30T04:14:45;3.17;;;1.00;;
70505;SDS011;58032;49.820;6.274;2022-09-30T04:17:12;4.53;;;1.48;;
70505;SDS011;58032;49.820;6.274;2022-09-30T04:19:39;4.63;;;1.63;;
70505;SDS011;58032;49.820;6.274;2022-09-30T04:22:06;5.00;;;1.75;;
70505;SDS011;58032;49.820;6.274;2022-09-30T04:24:33;3.88;;;0.98;;
70505;SDS011;58032;49.820;6.274;2022-09-30T04:27:01;3.17;;;0.90;;
70505;SDS011;58032;49.820;6.274;2022-09-30T04:29:28;2.80;;;0.73;;
70505;SDS011;58032;49.820;6.274;2022-09-30T04:31:54;2.73;;;0.70;;
70505;SDS011;58032;49.820;6.274;2022-09-30T04:34:22;2.42;;;0.63;;
70505;SDS011;58032;49.820;6.274;2022-09-30T04:36:48;2.10;;;0.60;;
70505;SDS011;58032;49.820;6.274;2022-09-30T04:39:15;5.60;;;0.63;;
70505;SDS011;58032;49.820;6.274;2022-09-30T04:41:42;3.38;;;1.13;;
70505;SDS011;58032;49.820;6.274;2022-09-30T04:44:09;3.00;;;0.90;;
70505;SDS011;58032;49.820;6.274;2022-09-30T04:46:36;3.58;;;1.00;;
70505;SDS011;58032;49.820;6.274;2022-09-30T04:49:03;3.20;;;0.93;;
70505;SDS011;58032;49.820;6.274;2022-09-30T04:51:33;2.55;;;1.00;;
70505;SDS011;58032;49.820;6.274;2022-09-30T04:54:01;3.22;;;1.00;;
70505;SDS011;58032;49.820;6.274;2022-09-30T04:56:28;6.83;;;1.07;;
70505;SDS011;58032;49.820;6.274;2022-09-30T04:58:55;3.28;;;1.10;;
70505;SDS011;58032;49.820;6.274;2022-09-30T05:01:22;26.55;;;1.23;;
70505;SDS011;58032;49.820;6.274;2022-09-30T05:03:48;9.93;;;1.00;;
70505;SDS011;58032;49.820;6.274;2022-09-30T05:06:16;11.13;;;1.20;;
70505;SDS011;58032;49.820;6.274;2022-09-30T05:08:43;8.43;;;1.07;;
70505;SDS011;58032;49.820;6.274;2022-09-30T05:11:13;3.38;;;0.73;;
70505;SDS011;58032;49.820;6.274;2022-09-30T05:13:40;4.10;;;0.57;;
70505;SDS011;58032;49.820;6.274;2022-09-30T05:16:07;14.30;;;0.63;;
70505;SDS011;58032;49.820;6.274;2022-09-30T05:18:34;2.00;;;0.50;;
70505;SDS011;58032;49.820;6.274;2022-09-30T05:21:02;6.83;;;0.60;;
70505;SDS011;58032;49.820;6.274;2022-09-30T05:23:29;10.60;;;0.70;;
70505;SDS011;58032;49.820;6.274;2022-09-30T05:25:56;2.83;;;0.90;;
70505;SDS011;58032;49.820;6.274;2022-09-30T05:28:24;3.10;;;0.73;;
70505;SDS011;58032;49.820;6.274;2022-09-30T05:30:58;8.43;;;1.17;;
70505;SDS011;58032;49.820;6.274;2022-09-30T05:33:26;5.13;;;0.70;;
70505;SDS011;58032;49.820;6.274;2022-09-30T05:35:54;2.40;;;0.68;;
70505;SDS011;58032;49.820;6.274;2022-09-30T05:38:21;2.40;;;0.63;;
70505;SDS011;58032;49.820;6.274;2022-09-30T05:40:48;2.55;;;0.70;;
70505;SDS011;58032;49.820;6.274;2022-09-30T05:43:15;13.30;;;2.67;;
70505;SDS011;58032;49.820;6.274;2022-09-30T05:45:42;5.87;;;0.70;;
70505;SDS011;58032;49.820;6.274;2022-09-30T05:48:16;4.10;;;0.70;;
70505;SDS011;58032;49.820;6.274;2022-09-30T05:50:43;2.72;;;0.70;;
70505;SDS011;58032;49.820;6.274;2022-09-30T05:53:16;6.00;;;0.50;;
70505;SDS011;58032;49.820;6.274;2022-09-30T05:55:44;2.20;;;0.57;;
70505;SDS011;58032;49.820;6.274;2022-09-30T05:58:12;2.10;;;0.57;;
70505;SDS011;58032;49.820;6.274;2022-09-30T06:00:42;2.58;;;0.63;;
70505;SDS011;58032;49.820;6.274;2022-09-30T06:03:09;35.92;;;1.30;;
70505;SDS011;58032;49.820;6.274;2022-09-30T06:05:36;12.30;;;0.90;;
70505;SDS011;58032;49.820;6.274;2022-09-30T06:08:03;6.40;;;2.13;;
70505;SDS011;58032;49.820;6.274;2022-09-30T06:10:33;5.87;;;0.73;;
70505;SDS011;58032;49.820;6.274;2022-09-30T06:13:03;11.02;;;0.93;;
70505;SDS011;58032;49.820;6.274;2022-09-30T06:15:30;4.70;;;0.77;;
70505;SDS011;58032;49.820;6.274;2022-09-30T06:17:57;10.27;;;1.08;;
70505;SDS011;58032;49.820;6.274;2022-09-30T06:20:24;8.90;;;1.13;;
70505;SDS011;58032;49.820;6.274;2022-09-30T06:22:50;28.40;;;0.97;;
70505;SDS011;58032;49.820;6.274;2022-09-30T06:25:17;41.17;;;1.38;;
70505;SDS011;58032;49.820;6.274;2022-09-30T06:27:44;20.52;;;1.10;;
70505;SDS011;58032;49.820;6.274;2022-09-30T06:30:12;2.72;;;0.73;;
70505;SDS011;58032;49.820;6.274;2022-09-30T06:32:39;4.28;;;0.57;;
70505;SDS011;58032;49.820;6.274;2022-09-30T06:35:08;2.30;;;0.60;;
70505;SDS011;58032;49.820;6.274;2022-09-30T06:37:35;2.63;;;0.45;;
70505;SDS011;58032;49.820;6.274;2022-09-30T06:40:04;2.20;;;0.57;;
70505;SDS011;58032;49.820;6.274;2022-09-30T06:42:31;3.60;;;0.47;;
70505;SDS011;58032;49.820;6.274;2022-09-30T06:44:58;2.28;;;0.43;;
70505;SDS011;58032;49.820;6.274;2022-09-30T06:47:25;1.77;;;0.33;;
70505;SDS011;58032;49.820;6.274;2022-09-30T06:49:52;2.28;;;0.68;;
70505;SDS011;58032;49.820;6.274;2022-09-30T06:52:20;2.00;;;0.52;;
70505;SDS011;58032;49.820;6.274;2022-09-30T06:54:47;3.33;;;0.40;;
70505;SDS011;58032;49.820;6.274;2022-09-30T06:57:15;3.05;;;0.73;;
70505;SDS011;58032;49.820;6.274;2022-09-30T06:59:48;2.60;;;0.63;;
70505;SDS011;58032;49.820;6.274;2022-09-30T07:02:15;2.60;;;0.80;;
70505;SDS011;58032;49.820;6.274;2022-09-30T07:04:42;2.10;;;0.50;;
70505;SDS011;58032;49.820;6.274;2022-09-30T07:07:09;2.80;;;0.95;;
70505;SDS011;58032;49.820;6.274;2022-09-30T07:09:36;3.17;;;0.90;;
70505;SDS011;58032;49.820;6.274;2022-09-30T07:12:03;2.73;;;0.87;;
70505;SDS011;58032;49.820;6.274;2022-09-30T07:14:31;2.38;;;0.70;;
70505;SDS011;58032;49.820;6.274;2022-09-30T07:17:00;2.65;;;0.90;;
70505;SDS011;58032;49.820;6.274;2022-09-30T07:19:29;3.15;;;1.00;;
70505;SDS011;58032;49.820;6.274;2022-09-30T07:21:56;3.78;;;0.98;;
70505;SDS011;58032;49.820;6.274;2022-09-30T07:24:43;2.57;;;0.87;;
70505;SDS011;58032;49.820;6.274;2022-09-30T07:27:10;2.92;;;0.88;;
70505;SDS011;58032;49.820;6.274;2022-09-30T07:29:39;3.00;;;1.00;;
70505;SDS011;58032;49.820;6.274;2022-09-30T07:32:22;2.47;;;0.80;;
70505;SDS011;58032;49.820;6.274;2022-09-30T07:34:49;2.97;;;1.20;;
70505;SDS011;58032;49.820;6.274;2022-09-30T07:37:16;3.77;;;1.47;;
70505;SDS011;58032;49.820;6.274;2022-09-30T07:39:45;2.90;;;1.30;;
70505;SDS011;58032;49.820;6.274;2022-09-30T07:42:13;3.28;;;1.33;;
70505;SDS011;58032;49.820;6.274;2022-09-30T07:44:43;3.38;;;1.20;;
70505;SDS011;58032;49.820;6.274;2022-09-30T07:47:10;3.45;;;1.20;;
70505;SDS011;58032;49.820;6.274;2022-09-30T07:49:37;3.20;;;1.03;;
70505;SDS011;58032;49.820;6.274;2022-09-30T07:52:04;5.10;;;1.30;;
70505;SDS011;58032;49.820;6.274;2022-09-30T07:54:32;7.78;;;1.55;;
70505;SDS011;58032;49.820;6.274;2022-09-30T07:57:01;3.03;;;1.30;;
70505;SDS011;58032;49.820;6.274;2022-09-30T07:59:38;3.60;;;1.35;;
70505;SDS011;58032;49.820;6.274;2022-09-30T08:02:05;6.80;;;1.40;;
70505;SDS011;58032;49.820;6.274;2022-09-30T08:04:32;3.40;;;1.55;;
70505;SDS011;58032;49.820;6.274;2022-09-30T08:07:00;3.25;;;1.25;;
70505;SDS011;58032;49.820;6.274;2022-09-30T08:09:28;2.78;;;1.00;;
70505;SDS011;58032;49.820;6.274;2022-09-30T08:11:55;3.28;;;1.30;;
70505;SDS011;58032;49.820;6.274;2022-09-30T08:14:25;3.50;;;1.50;;
70505;SDS011;58032;49.820;6.274;2022-09-30T08:16:52;3.30;;;1.38;;
70505;SDS011;58032;49.820;6.274;2022-09-30T08:19:22;3.92;;;1.38;;
70505;SDS011;58032;49.820;6.274;2022-09-30T08:21:49;6.20;;;1.40;;
70505;SDS011;58032;49.820;6.274;2022-09-30T08:24:16;5.85;;;1.40;;
70505;SDS011;58032;49.820;6.274;2022-09-30T08:26:43;3.63;;;1.50;;
70505;SDS011;58032;49.820;6.274;2022-09-30T08:29:10;4.47;;;1.65;;
70505;SDS011;58032;49.820;6.274;2022-09-30T08:31:40;4.50;;;1.50;;
70505;SDS011;58032;49.820;6.274;2022-09-30T08:34:07;4.30;;;1.52;;
70505;SDS011;58032;49.820;6.274;2022-09-30T08:36:34;5.20;;;2.20;;
70505;SDS011;58032;49.820;6.274;2022-09-30T08:39:00;4.80;;;1.90;;
70505;SDS011;58032;49.820;6.274;2022-09-30T08:51:54;3.37;;;1.60;;
70505;SDS011;58032;49.820;6.274;2022-09-30T08:54:24;3.45;;;1.30;;
70505;SDS011;58032;49.820;6.274;2022-09-30T08:56:51;4.80;;;1.92;;
70505;SDS011;58032;49.820;6.274;2022-09-30T09:04:42;3.33;;;1.47;;
70505;SDS011;58032;49.820;6.274;2022-09-30T09:15:00;3.20;;;1.50;;
70505;SDS011;58032;49.820;6.274;2022-09-30T09:22:26;3.80;;;1.90;;
70505;SDS011;58032;49.820;6.274;2022-09-30T09:24:54;4.93;;;1.65;;
70505;SDS011;58032;49.820;6.274;2022-09-30T09:27:36;7.15;;;1.98;;
70505;SDS011;58032;49.820;6.274;2022-09-30T09:30:11;4.00;;;1.80;;
70505;SDS011;58032;49.820;6.274;2022-09-30T09:32:38;4.22;;;1.70;;
70505;SDS011;58032;49.820;6.274;2022-09-30T09:35:11;5.20;;;1.55;;
70505;SDS011;58032;49.820;6.274;2022-09-30T09:37:43;4.93;;;1.50;;
70505;SDS011;58032;49.820;6.274;2022-09-30T09:40:41;3.75;;;1.63;;
70505;SDS011;58032;49.820;6.274;2022-09-30T09:43:14;3.20;;;1.70;;
70505;SDS011;58032;49.820;6.274;2022-09-30T09:45:53;6.22;;;1.50;;
70505;SDS011;58032;49.820;6.274;2022-09-30T09:48:24;3.78;;;1.65;;
70505;SDS011;58032;49.820;6.274;2022-09-30T09:50:59;4.95;;;2.15;;
70505;SDS011;58032;49.820;6.274;2022-09-30T09:56:09;5.27;;;2.30;;
70505;SDS011;58032;49.820;6.274;2022-09-30T10:01:52;7.13;;;2.65;;
70505;SDS011;58032;49.820;6.274;2022-09-30T10:04:28;5.93;;;2.50;;
70505;SDS011;58032;49.820;6.274;2022-09-30T10:06:57;4.95;;;2.45;;
70505;SDS011;58032;49.820;6.274;2022-09-30T10:09:28;4.90;;;2.30;;
70505;SDS011;58032;49.820;6.274;2022-09-30T10:17:04;5.93;;;2.10;;
70505;SDS011;58032;49.820;6.274;2022-09-30T10:19:32;5.97;;;2.22;;
70505;SDS011;58032;49.820;6.274;2022-09-30T10:24:36;3.60;;;2.08;;
70505;SDS011;58032;49.820;6.274;2022-09-30T10:27:03;5.10;;;1.98;;
70505;SDS011;58032;49.820;6.274;2022-09-30T10:29:31;5.68;;;2.30;;
70505;SDS011;58032;49.820;6.274;2022-09-30T10:31:58;5.95;;;1.95;;
70505;SDS011;58032;49.820;6.274;2022-09-30T10:34:29;4.37;;;1.90;;
70505;SDS011;58032;49.820;6.274;2022-09-30T10:36:59;3.47;;;1.70;;
70505;SDS011;58032;49.820;6.274;2022-09-30T10:39:27;3.90;;;1.60;;
70505;SDS011;58032;49.820;6.274;2022-09-30T10:42:02;4.97;;;1.63;;
70505;SDS011;58032;49.820;6.274;2022-09-30T10:44:30;4.00;;;1.85;;
70505;SDS011;58032;49.820;6.274;2022-09-30T10:46:58;3.87;;;1.70;;
70505;SDS011;58032;49.820;6.274;2022-09-30T10:49:30;3.67;;;1.50;;
70505;SDS011;58032;49.820;6.274;2022-09-30T10:51:57;4.43;;;1.92;;
70505;SDS011;58032;49.820;6.274;2022-09-30T10:55:08;4.30;;;1.77;;
70505;SDS011;58032;49.820;6.274;2022-09-30T10:57:19;2.95;;;1.45;;
70505;SDS011;58032;49.820;6.274;2022-09-30T10:59:46;3.60;;;1.10;;
70505;SDS011;58032;49.820;6.274;2022-09-30T11:02:33;3.20;;;1.50;;
70505;SDS011;58032;49.820;6.274;2022-09-30T11:05:06;4.30;;;1.40;;
70505;SDS011;58032;49.820;6.274;2022-09-30T11:13:03;4.63;;;1.43;;
70505;SDS011;58032;49.820;6.274;2022-09-30T11:21:41;3.88;;;1.38;;
70505;SDS011;58032;49.820;6.274;2022-09-30T11:29:26;3.65;;;1.42;;
70505;SDS011;58032;49.820;6.274;2022-09-30T11:40:12;4.03;;;1.60;;
70505;SDS011;58032;49.820;6.274;2022-09-30T11:42:48;3.17;;;1.40;;
70505;SDS011;58032;49.820;6.274;2022-09-30T11:45:20;3.88;;;1.20;;
70505;SDS011;58032;49.820;6.274;2022-09-30T11:50:43;4.43;;;1.80;;
70505;SDS011;58032;49.820;6.274;2022-09-30T11:53:12;4.70;;;1.93;;
70505;SDS011;58032;49.820;6.274;2022-09-30T11:55:56;3.97;;;1.80;;
70505;SDS011;58032;49.820;6.274;2022-09-30T11:58:32;5.10;;;1.77;;
70505;SDS011;58032;49.820;6.274;2022-09-30T12:04:07;2.75;;;1.38;;
70505;SDS011;58032;49.820;6.274;2022-09-30T12:06:39;4.77;;;1.70;;
70505;SDS011;58032;49.820;6.274;2022-09-30T12:14:22;4.35;;;1.63;;
70505;SDS011;58032;49.820;6.274;2022-09-30T12:16:51;4.32;;;1.77;;
70505;SDS011;58032;49.820;6.274;2022-09-30T12:19:19;4.53;;;1.73;;
70505;SDS011;58032;49.820;6.274;2022-09-30T12:21:52;4.13;;;1.92;;
70505;SDS011;58032;49.820;6.274;2022-09-30T12:24:36;4.47;;;2.00;;
70505;SDS011;58032;49.820;6.274;2022-09-30T12:27:04;4.80;;;2.08;;
70505;SDS011;58032;49.820;6.274;2022-09-30T12:29:37;3.80;;;2.00;;
70505;SDS011;58032;49.820;6.274;2022-09-30T12:46:21;5.68;;;2.05;;
70505;SDS011;58032;49.820;6.274;2022-09-30T12:48:59;3.60;;;1.90;;
70505;SDS011;58032;49.820;6.274;2022-09-30T12:51:30;3.43;;;1.80;;
70505;SDS011;58032;49.820;6.274;2022-09-30T12:56:43;3.83;;;1.88;;
70505;SDS011;58032;49.820;6.274;2022-09-30T12:59:12;4.18;;;1.67;;
70505;SDS011;58032;49.820;6.274;2022-09-30T13:01:40;5.47;;;1.40;;
70505;SDS011;58032;49.820;6.274;2022-09-30T13:04:08;5.60;;;1.90;;
70505;SDS011;58032;49.820;6.274;2022-09-30T13:09:17;5.13;;;1.75;;
70505;SDS011;58032;49.820;6.274;2022-09-30T13:11:45;3.00;;;1.30;;
70505;SDS011;58032;49.820;6.274;2022-09-30T13:16:56;4.00;;;1.50;;
70505;SDS011;58032;49.820;6.274;2022-09-30T13:19:29;6.07;;;1.80;;
70505;SDS011;58032;49.820;6.274;2022-09-30T13:25:16;3.90;;;1.52;;
70505;SDS011;58032;49.820;6.274;2022-09-30T13:32:44;3.33;;;1.50;;
70505;SDS011;58032;49.820;6.274;2022-09-30T13:40:42;4.47;;;1.52;;
70505;SDS011;58032;49.820;6.274;2022-09-30T13:43:37;3.77;;;1.40;;
70505;SDS011;58032;49.820;6.274;2022-09-30T13:48:53;4.45;;;1.60;;
70505;SDS011;58032;49.820;6.274;2022-09-30T13:51:23;3.45;;;1.40;;
70505;SDS011;58032;49.820;6.274;2022-09-30T13:53:51;4.57;;;2.03;;
70505;SDS011;58032;49.820;6.274;2022-09-30T14:03:59;3.25;;;1.00;;
70505;SDS011;58032;49.820;6.274;2022-09-30T14:09:02;2.80;;;1.17;;
70505;SDS011;58032;49.820;6.274;2022-09-30T14:17:03;3.83;;;1.02;;
70505;SDS011;58032;49.820;6.274;2022-09-30T14:22:41;2.50;;;0.90;;
70505;SDS011;58032;49.820;6.274;2022-09-30T14:25:20;3.28;;;1.20;;
70505;SDS011;58032;49.820;6.274;2022-09-30T14:30:25;2.15;;;0.82;;
70505;SDS011;58032;49.820;6.274;2022-09-30T14:32:57;5.60;;;1.20;;
70505;SDS011;58032;49.820;6.274;2022-09-30T14:35:26;4.37;;;1.60;;
70505;SDS011;58032;49.820;6.274;2022-09-30T14:38:07;4.40;;;1.50;;
70505;SDS011;58032;49.820;6.274;2022-09-30T14:40:35;3.83;;;1.30;;
70505;SDS011;58032;49.820;6.274;2022-09-30T14:43:03;2.88;;;1.20;;
70505;SDS011;58032;49.820;6.274;2022-09-30T14:45:39;4.80;;;1.27;;
70505;SDS011;58032;49.820;6.274;2022-09-30T14:48:17;3.17;;;1.30;;
70505;SDS011;58032;49.820;6.274;2022-09-30T14:51:18;3.90;;;1.60;;
70505;SDS011;58032;49.820;6.274;2022-09-30T14:53:43;3.30;;;1.30;;
70505;SDS011;58032;49.820;6.274;2022-09-30T14:56:26;4.43;;;1.50;;
70505;SDS011;58032;49.820;6.274;2022-09-30T14:58:55;3.75;;;1.50;;
70505;SDS011;58032;49.820;6.274;2022-09-30T15:01:29;3.13;;;1.40;;
70505;SDS011;58032;49.820;6.274;2022-09-30T15:04:13;3.42;;;1.50;;
70505;SDS011;58032;49.820;6.274;2022-09-30T15:06:42;4.28;;;1.52;;
70505;SDS011;58032;49.820;6.274;2022-09-30T15:09:19;3.25;;;1.38;;
70505;SDS011;58032;49.820;6.274;2022-09-30T15:11:47;4.18;;;1.40;;
70505;SDS011;58032;49.820;6.274;2022-09-30T15:14:15;3.57;;;1.40;;
70505;SDS011;58032;49.820;6.274;2022-09-30T15:16:44;3.17;;;1.48;;
70505;SDS011;58032;49.820;6.274;2022-09-30T15:19:22;2.20;;;1.10;;
70505;SDS011;58032;49.820;6.274;2022-09-30T15:21:50;2.97;;;1.20;;
70505;SDS011;58032;49.820;6.274;2022-09-30T15:24:18;4.22;;;1.20;;
70505;SDS011;58032;49.820;6.274;2022-09-30T15:26:53;2.70;;;0.93;;
70505;SDS011;58032;49.820;6.274;2022-09-30T15:29:21;4.32;;;1.08;;
70505;SDS011;58032;49.820;6.274;2022-09-30T15:32:13;3.28;;;1.10;;
70505;SDS011;58032;49.820;6.274;2022-09-30T15:34:41;5.10;;;1.20;;
70505;SDS011;58032;49.820;6.274;2022-09-30T15:37:12;4.07;;;1.50;;
70505;SDS011;58032;49.820;6.274;2022-09-30T15:39:45;3.53;;;1.50;;
70505;SDS011;58032;49.820;6.274;2022-09-30T15:42:33;3.88;;;1.60;;
70505;SDS011;58032;49.820;6.274;2022-09-30T15:45:04;4.00;;;1.50;;
70505;SDS011;58032;49.820;6.274;2022-09-30T15:47:53;3.75;;;1.45;;
70505;SDS011;58032;49.820;6.274;2022-09-30T15:50:34;5.10;;;1.40;;
70505;SDS011;58032;49.820;6.274;2022-09-30T15:53:04;3.37;;;1.43;;
70505;SDS011;58032;49.820;6.274;2022-09-30T15:55:35;4.57;;;1.42;;
70505;SDS011;58032;49.820;6.274;2022-09-30T15:58:03;3.10;;;0.80;;
70505;SDS011;58032;49.820;6.274;2022-09-30T16:00:37;2.42;;;0.90;;
70505;SDS011;58032;49.820;6.274;2022-09-30T16:03:19;2.95;;;0.80;;
70505;SDS011;58032;49.820;6.274;2022-09-30T16:05:49;5.73;;;0.90;;
70505;SDS011;58032;49.820;6.274;2022-09-30T16:08:23;4.82;;;0.88;;
70505;SDS011;58032;49.820;6.274;2022-09-30T16:10:54;2.42;;;0.80;;
70505;SDS011;58032;49.820;6.274;2022-09-30T16:13:26;8.07;;;1.25;;
70505;SDS011;58032;49.820;6.274;2022-09-30T16:15:55;3.95;;;1.00;;
70505;SDS011;58032;49.820;6.274;2022-09-30T16:18:28;2.63;;;0.73;;
70505;SDS011;58032;49.820;6.274;2022-09-30T16:20:59;2.97;;;0.90;;
70505;SDS011;58032;49.820;6.274;2022-09-30T16:23:36;2.83;;;0.80;;
70505;SDS011;58032;49.820;6.274;2022-09-30T16:26:26;3.33;;;0.75;;
70505;SDS011;58032;49.820;6.274;2022-09-30T16:28:54;5.50;;;0.80;;
70505;SDS011;58032;49.820;6.274;2022-09-30T16:31:30;2.60;;;0.77;;
70505;SDS011;58032;49.820;6.274;2022-09-30T16:33:58;3.08;;;0.80;;
70505;SDS011;58032;49.820;6.274;2022-09-30T16:36:24;4.75;;;0.88;;
70505;SDS011;58032;49.820;6.274;2022-09-30T16:38:51;3.30;;;0.82;;
70505;SDS011;58032;49.820;6.274;2022-09-30T16:41:18;1.90;;;0.65;;
70505;SDS011;58032;49.820;6.274;2022-09-30T16:43:45;3.23;;;0.70;;
70505;SDS011;58032;49.820;6.274;2022-09-30T16:46:12;3.40;;;0.70;;
70505;SDS011;58032;49.820;6.274;2022-09-30T16:48:39;3.28;;;0.77;;
70505;SDS011;58032;49.820;6.274;2022-09-30T16:51:13;3.47;;;0.82;;
70505;SDS011;58032;49.820;6.274;2022-09-30T16:53:41;4.32;;;1.25;;
70505;SDS011;58032;49.820;6.274;2022-09-30T16:56:14;2.13;;;0.63;;
70505;SDS011;58032;49.820;6.274;2022-09-30T16:58:42;2.30;;;0.73;;
70505;SDS011;58032;49.820;6.274;2022-09-30T17:01:19;2.53;;;0.88;;
70505;SDS011;58032;49.820;6.274;2022-09-30T17:03:47;2.63;;;0.80;;
70505;SDS011;58032;49.820;6.274;2022-09-30T17:06:18;3.38;;;0.85;;
70505;SDS011;58032;49.820;6.274;2022-09-30T17:08:48;2.07;;;0.50;;
70505;SDS011;58032;49.820;6.274;2022-09-30T17:11:15;7.28;;;1.00;;
70505;SDS011;58032;49.820;6.274;2022-09-30T17:13:42;3.28;;;0.95;;
70505;SDS011;58032;49.820;6.274;2022-09-30T17:16:09;4.50;;;0.90;;
70505;SDS011;58032;49.820;6.274;2022-09-30T17:18:36;3.58;;;0.80;;
70505;SDS011;58032;49.820;6.274;2022-09-30T17:21:03;2.63;;;0.90;;
70505;SDS011;58032;49.820;6.274;2022-09-30T17:23:41;5.35;;;0.70;;
70505;SDS011;58032;49.820;6.274;2022-09-30T17:26:07;3.47;;;0.73;;
70505;SDS011;58032;49.820;6.274;2022-09-30T17:28:34;2.72;;;0.70;;
70505;SDS011;58032;49.820;6.274;2022-09-30T17:31:01;2.90;;;0.73;;
70505;SDS011;58032;49.820;6.274;2022-09-30T17:33:29;3.13;;;0.67;;
70505;SDS011;58032;49.820;6.274;2022-09-30T17:35:59;3.33;;;0.77;;
70505;SDS011;58032;49.820;6.274;2022-09-30T17:38:27;3.58;;;1.10;;
70505;SDS011;58032;49.820;6.274;2022-09-30T17:40:54;2.80;;;0.77;;
70505;SDS011;58032;49.820;6.274;2022-09-30T17:43:39;2.80;;;0.93;;
70505;SDS011;58032;49.820;6.274;2022-09-30T17:46:06;3.07;;;0.90;;
70505;SDS011;58032;49.820;6.274;2022-09-30T17:48:33;3.13;;;1.05;;
70505;SDS011;58032;49.820;6.274;2022-09-30T17:51:00;3.33;;;0.90;;
70505;SDS011;58032;49.820;6.274;2022-09-30T17:53:27;4.80;;;1.20;;
70505;SDS011;58032;49.820;6.274;2022-09-30T17:56:06;5.20;;;0.60;;
70505;SDS011;58032;49.820;6.274;2022-09-30T17:58:38;2.20;;;0.50;;
70505;SDS011;58032;49.820;6.274;2022-09-30T18:01:06;3.05;;;0.63;;
70505;SDS011;58032;49.820;6.274;2022-09-30T18:03:33;5.22;;;0.50;;
70505;SDS011;58032;49.820;6.274;2022-09-30T18:06:00;2.17;;;0.63;;
70505;SDS011;58032;49.820;6.274;2022-09-30T18:08:27;2.30;;;0.85;;
70505;SDS011;58032;49.820;6.274;2022-09-30T18:10:54;2.77;;;0.93;;
70505;SDS011;58032;49.820;6.274;2022-09-30T18:13:26;3.85;;;0.85;;
70505;SDS011;58032;49.820;6.274;2022-09-30T18:15:53;3.33;;;0.80;;
70505;SDS011;58032;49.820;6.274;2022-09-30T18:18:20;3.25;;;0.80;;